sensor_id;sensor_type;location;lat;lon;timestamp;pressure;altitude;pressure_sealevel;temperature;humidity
58534;BME280;44109;52.398;7.024;2022-09-28T00:00:59;99295.25;;;10.11;91.67
58534;BME280;44109;52.398;7.024;2022-09-28T00:03:31;99267.22;;;9.99;91.74
58534;BME280;44109;52.398;7.024;2022-09-28T00:06:03;99282.19;;;10.15;91.95
58534;BME280;44109;52.398;7.024;2022-09-28T00:08:34;99288.09;;;10.28;92.17
58534;BME280;44109;52.398;7.024;2022-09-28T00:11:04;99285.66;;;10.34;92.14
58534;BME280;44109;52.398;7.024;2022-09-28T00:13:32;99267.13;;;10.27;92.44
58534;BME280;44109;52.398;7.024;2022-09-28T00:16:03;99279.31;;;10.40;91.99
58534;BME280;44109;52.398;7.024;2022-09-28T00:18:33;99280.47;;;10.43;92.15
58534;BME280;44109;52.398;7.024;2022-09-28T00:21:02;99279.69;;;10.43;92.14
58534;BME280;44109;52.398;7.024;2022-09-28T00:23:32;99285.22;;;10.43;92.10
58534;BME280;44109;52.398;7.024;2022-09-28T00:26:21;99279.69;;;10.43;91.93
58534;BME280;44109;52.398;7.024;2022-09-28T00:28:50;99239.47;;;10.09;91.98
58534;BME280;44109;52.398;7.024;2022-09-28T00:31:18;99277.34;;;10.37;91.92
58534;BME280;44109;52.398;7.024;2022-09-28T00:33:48;99281.31;;;10.33;91.61
58534;BME280;44109;52.398;7.024;2022-09-28T00:36:16;99280.53;;;10.32;91.69
58534;BME280;44109;52.398;7.024;2022-09-28T00:38:45;99274.59;;;10.30;91.60
58534;BME280;44109;52.398;7.024;2022-09-28T00:41:13;99277.38;;;10.30;91.69
58534;BME280;44109;52.398;7.024;2022-09-28T00:43:41;99277.38;;;10.30;91.62
58534;BME280;44109;52.398;7.024;2022-09-28T00:46:13;99276.16;;;10.35;91.85
58534;BME280;44109;52.398;7.024;2022-09-28T00:48:49;99277.34;;;10.37;92.05
58534;BME280;44109;52.398;7.024;2022-09-28T00:51:23;99269.38;;;10.43;92.09
58534;BME280;44109;52.398;7.024;2022-09-28T00:53:54;99271.75;;;10.45;92.52
58534;BME280;44109;52.398;7.024;2022-09-28T00:56:27;99264.59;;;10.47;92.43
58534;BME280;44109;52.398;7.024;2022-09-28T00:58:58;99269.31;;;10.54;92.28
58534;BME280;44109;52.398;7.024;2022-09-28T01:01:29;99265.31;;;10.58;92.91
58534;BME280;44109;52.398;7.024;2022-09-28T01:03:58;99276.38;;;10.62;92.58
58534;BME280;44109;52.398;7.024;2022-09-28T01:06:31;99265.66;;;10.68;92.93
58534;BME280;44109;52.398;7.024;2022-09-28T01:09:03;99248.59;;;10.69;92.99
58534;BME280;44109;52.398;7.024;2022-09-28T01:11:37;99254.06;;;10.76;92.62
58534;BME280;44109;52.398;7.024;2022-09-28T01:14:08;99253.25;;;10.83;92.80
58534;BME280;44109;52.398;7.024;2022-09-28T01:16:41;99253.56;;;10.88;92.75
58534;BME280;44109;52.398;7.024;2022-09-28T01:19:29;99260.28;;;10.95;92.98
58534;BME280;44109;52.398;7.024;2022-09-28T01:22:26;99254.69;;;10.98;92.53
58534;BME280;44109;52.398;7.024;2022-09-28T01:25:11;99257.81;;;11.04;92.46
58534;BME280;44109;52.398;7.024;2022-09-28T01:27:53;99254.59;;;11.09;92.53
58534;BME280;44109;52.398;7.024;2022-09-28T01:30:25;99249.81;;;11.13;92.44
58534;BME280;44109;52.398;7.024;2022-09-28T01:32:56;99246.22;;;11.12;92.13
58534;BME280;44109;52.398;7.024;2022-09-28T01:35:34;99251.72;;;11.16;91.94
58534;BME280;44109;52.398;7.024;2022-09-28T01:38:08;99249.75;;;11.16;91.80
58534;BME280;44109;52.398;7.024;2022-09-28T01:40:42;99244.63;;;11.15;91.76
58534;BME280;44109;52.398;7.024;2022-09-28T01:43:16;99237.81;;;11.20;91.66
58534;BME280;44109;52.398;7.024;2022-09-28T01:45:52;99241.78;;;11.22;91.87
58534;BME280;44109;52.398;7.024;2022-09-28T01:48:29;99243.75;;;11.22;91.49
58534;BME280;44109;52.398;7.024;2022-09-28T01:51:05;99239.38;;;11.24;91.81
58534;BME280;44109;52.398;7.024;2022-09-28T01:53:40;99240.13;;;11.28;91.71
58534;BME280;44109;52.398;7.024;2022-09-28T01:56:17;99241.69;;;11.29;91.75
58534;BME280;44109;52.398;7.024;2022-09-28T01:58:55;99233.75;;;11.31;91.37
58534;BME280;44109;52.398;7.024;2022-09-28T02:01:32;99233.75;;;11.31;91.16
58534;BME280;44109;52.398;7.024;2022-09-28T02:04:07;99229.78;;;11.32;90.92
58534;BME280;44109;52.398;7.024;2022-09-28T02:06:42;99232.91;;;11.34;91.06
58534;BME280;44109;52.398;7.024;2022-09-28T02:09:17;99227.75;;;11.36;90.87
58534;BME280;44109;52.398;7.024;2022-09-28T02:11:54;99224.97;;;11.36;90.81
58534;BME280;44109;52.398;7.024;2022-09-28T02:14:28;99230.09;;;11.38;91.10
58534;BME280;44109;52.398;7.024;2022-09-28T02:16:57;99225.72;;;11.40;91.00
58534;BME280;44109;52.398;7.024;2022-09-28T02:19:26;99226.53;;;11.37;91.06
58534;BME280;44109;52.398;7.024;2022-09-28T02:21:58;99228.88;;;11.39;90.97
58534;BME280;44109;52.398;7.024;2022-09-28T02:24:36;99236.03;;;11.40;90.48
58534;BME280;44109;52.398;7.024;2022-09-28T02:27:08;99240.00;;;11.39;90.64
58534;BME280;44109;52.398;7.024;2022-09-28T02:29:41;99232.84;;;11.41;90.69
58534;BME280;44109;52.398;7.024;2022-09-28T02:32:09;99236.41;;;11.42;90.45
58534;BME280;44109;52.398;7.024;2022-09-28T02:34:37;99237.19;;;11.42;90.52
58534;BME280;44109;52.398;7.024;2022-09-28T02:37:05;99235.97;;;11.43;90.35
58534;BME280;44109;52.398;7.024;2022-09-28T02:39:32;99236.41;;;11.42;90.64
58534;BME280;44109;52.398;7.024;2022-09-28T02:42:05;99229.66;;;11.39;90.70
58534;BME280;44109;52.398;7.024;2022-09-28T02:44:51;99235.22;;;11.39;90.36
58534;BME280;44109;52.398;7.024;2022-09-28T02:47:45;99235.22;;;11.39;90.28
58534;BME280;44109;52.398;7.024;2022-09-28T02:50:29;99246.75;;;11.38;90.75
58534;BME280;44109;52.398;7.024;2022-09-28T02:53:27;99234.88;;;11.37;91.00
58534;BME280;44109;52.398;7.024;2022-09-28T02:56:19;99242.38;;;11.40;91.78
58534;BME280;44109;52.398;7.024;2022-09-28T02:59:05;99240.38;;;11.41;92.09
58534;BME280;44109;52.398;7.024;2022-09-28T03:01:50;99223.47;;;11.28;91.93
58534;BME280;44109;52.398;7.024;2022-09-28T03:04:31;99243.16;;;11.41;91.66
58534;BME280;44109;52.398;7.024;2022-09-28T03:07:10;99249.50;;;11.41;91.59
58534;BME280;44109;52.398;7.024;2022-09-28T03:09:54;99246.00;;;11.34;91.75
58534;BME280;44109;52.398;7.024;2022-09-28T03:12:28;99247.53;;;11.38;91.86
58534;BME280;44109;52.398;7.024;2022-09-28T03:15:09;99247.16;;;11.40;91.67
58534;BME280;44109;52.398;7.024;2022-09-28T03:17:40;99250.28;;;11.42;91.66
58534;BME280;44109;52.398;7.024;2022-09-28T03:20:09;99256.25;;;11.40;92.30
58534;BME280;44109;52.398;7.024;2022-09-28T03:22:37;99255.50;;;11.36;92.15
58534;BME280;44109;52.398;7.024;2022-09-28T03:25:06;99255.13;;;11.34;92.54
58534;BME280;44109;52.398;7.024;2022-09-28T03:27:35;99235.09;;;11.12;92.18
58534;BME280;44109;52.398;7.024;2022-09-28T03:30:04;99254.19;;;11.07;92.37
58534;BME280;44109;52.398;7.024;2022-09-28T03:32:32;99251.38;;;11.14;92.41
58534;BME280;44109;52.398;7.024;2022-09-28T03:35:01;99257.22;;;11.23;91.99
58534;BME280;44109;52.398;7.024;2022-09-28T03:37:30;99254.06;;;10.76;93.71
58534;BME280;44109;52.398;7.024;2022-09-28T03:39:58;99255.94;;;10.90;93.25
58534;BME280;44109;52.398;7.024;2022-09-28T03:42:25;99246.47;;;10.84;93.03
58534;BME280;44109;52.398;7.024;2022-09-28T03:44:53;99256.31;;;10.92;93.44
58534;BME280;44109;52.398;7.024;2022-09-28T03:47:20;99255.38;;;10.64;94.60
58534;BME280;44109;52.398;7.024;2022-09-28T03:49:48;99243.16;;;10.58;94.24
58534;BME280;44109;52.398;7.024;2022-09-28T03:52:16;99251.16;;;10.46;95.27
58534;BME280;44109;52.398;7.024;2022-09-28T03:54:44;99254.25;;;10.55;94.44
58534;BME280;44109;52.398;7.024;2022-09-28T03:57:11;99250.38;;;10.41;95.16
58534;BME280;44109;52.398;7.024;2022-09-28T03:59:39;99251.91;;;10.50;94.93
58534;BME280;44109;52.398;7.024;2022-09-28T04:02:06;99251.53;;;10.48;94.15
58534;BME280;44109;52.398;7.024;2022-09-28T04:04:34;99251.97;;;10.43;94.28
58534;BME280;44109;52.398;7.024;2022-09-28T04:07:01;99251.19;;;10.38;93.73
58534;BME280;44109;52.398;7.024;2022-09-28T04:09:30;99245.72;;;10.28;93.62
58534;BME280;44109;52.398;7.024;2022-09-28T04:11:58;99252.13;;;10.14;94.77
58534;BME280;44109;52.398;7.024;2022-09-28T04:14:25;99252.97;;;10.04;95.56
58534;BME280;44109;52.398;7.024;2022-09-28T04:16:53;99249.03;;;9.98;95.62
58534;BME280;44109;52.398;7.024;2022-09-28T04:19:20;99247.84;;;9.99;96.04
58534;BME280;44109;52.398;7.024;2022-09-28T04:21:48;99256.25;;;9.77;96.69
58534;BME280;44109;52.398;7.024;2022-09-28T04:24:16;99244.28;;;9.98;96.22
58534;BME280;44109;52.398;7.024;2022-09-28T04:26:46;99250.25;;;9.93;96.11
58534;BME280;44109;52.398;7.024;2022-09-28T04:29:14;99257.41;;;9.90;96.15
58534;BME280;44109;52.398;7.024;2022-09-28T04:31:43;99252.19;;;10.00;96.48
58534;BME280;44109;52.398;7.024;2022-09-28T04:34:12;99251.09;;;9.79;96.72
58534;BME280;44109;52.398;7.024;2022-09-28T04:36:42;99249.03;;;9.98;96.42
58534;BME280;44109;52.398;7.024;2022-09-28T04:39:10;99248.34;;;9.79;96.26
58534;BME280;44109;52.398;7.024;2022-09-28T04:41:38;99249.53;;;9.78;96.65
58534;BME280;44109;52.398;7.024;2022-09-28T04:44:07;99250.38;;;9.61;97.21
58534;BME280;44109;52.398;7.024;2022-09-28T04:46:35;99255.53;;;9.59;97.66
58534;BME280;44109;52.398;7.024;2022-09-28T04:49:03;99242.50;;;9.49;98.06
58534;BME280;44109;52.398;7.024;2022-09-28T04:51:30;99230.75;;;9.20;98.73
58534;BME280;44109;52.398;7.024;2022-09-28T04:53:58;99252.44;;;9.35;98.72
58534;BME280;44109;52.398;7.024;2022-09-28T04:56:26;99256.75;;;9.44;98.72
58534;BME280;44109;52.398;7.024;2022-09-28T04:58:53;99263.47;;;9.50;98.57
58534;BME280;44109;52.398;7.024;2022-09-28T05:01:22;99255.94;;;9.57;97.52
58534;BME280;44109;52.398;7.024;2022-09-28T05:03:50;99271.38;;;9.51;97.53
58534;BME280;44109;52.398;7.024;2022-09-28T05:06:18;99272.63;;;9.32;97.34
58534;BME280;44109;52.398;7.024;2022-09-28T05:08:47;99270.22;;;9.38;98.15
58534;BME280;44109;52.398;7.024;2022-09-28T05:11:15;99266.34;;;9.14;98.68
58534;BME280;44109;52.398;7.024;2022-09-28T05:13:44;99278.53;;;9.34;98.94
58534;BME280;44109;52.398;7.024;2022-09-28T05:16:13;99275.34;;;9.54;98.22
58534;BME280;44109;52.398;7.024;2022-09-28T05:18:43;99266.19;;;9.64;97.87
58534;BME280;44109;52.398;7.024;2022-09-28T05:21:11;99271.28;;;9.76;97.48
58534;BME280;44109;52.398;7.024;2022-09-28T05:23:40;99274.81;;;9.80;97.04
58534;BME280;44109;52.398;7.024;2022-09-28T05:26:12;99274.03;;;9.83;97.15
58534;BME280;44109;52.398;7.024;2022-09-28T05:28:39;99280.34;;;9.87;97.39
58534;BME280;44109;52.398;7.024;2022-09-28T05:31:07;99257.09;;;9.63;97.72
58534;BME280;44109;52.398;7.024;2022-09-28T05:33:35;99276.13;;;9.44;98.10
58534;BME280;44109;52.398;7.024;2022-09-28T05:36:07;99276.06;;;9.65;98.28
58534;BME280;44109;52.398;7.024;2022-09-28T05:38:36;99268.13;;;9.81;98.09
58534;BME280;44109;52.398;7.024;2022-09-28T05:41:03;99274.44;;;9.78;97.91
58534;BME280;44109;52.398;7.024;2022-09-28T05:43:31;99273.69;;;9.71;98.13
58534;BME280;44109;52.398;7.024;2022-09-28T05:45:59;99277.94;;;9.89;98.13
58534;BME280;44109;52.398;7.024;2022-09-28T05:48:26;99263.38;;;9.78;97.75
58534;BME280;44109;52.398;7.024;2022-09-28T05:50:54;99264.09;;;9.97;97.55
58534;BME280;44109;52.398;7.024;2022-09-28T05:53:25;99276.88;;;9.69;97.93
58534;BME280;44109;52.398;7.024;2022-09-28T05:55:56;99276.06;;;9.72;97.61
58534;BME280;44109;52.398;7.024;2022-09-28T05:58:24;99277.59;;;9.80;97.24
58534;BME280;44109;52.398;7.024;2022-09-28T06:00:53;99255.91;;;9.64;96.89
58534;BME280;44109;52.398;7.024;2022-09-28T06:03:21;99274.75;;;10.02;96.74
58534;BME280;44109;52.398;7.024;2022-09-28T06:05:49;99272.47;;;9.75;96.47
58534;BME280;44109;52.398;7.024;2022-09-28T06:08:16;99283.97;;;9.74;96.98
58534;BME280;44109;52.398;7.024;2022-09-28T06:10:46;99283.50;;;9.89;96.37
58534;BME280;44109;52.398;7.024;2022-09-28T06:13:13;99287.03;;;9.94;96.66
58534;BME280;44109;52.398;7.024;2022-09-28T06:15:41;99280.59;;;10.18;96.33
58534;BME280;44109;52.398;7.024;2022-09-28T06:18:12;99273.06;;;10.22;96.30
58534;BME280;44109;52.398;7.024;2022-09-28T06:20:41;99280.88;;;10.41;95.77
58534;BME280;44109;52.398;7.024;2022-09-28T06:23:10;99283.19;;;10.54;95.58
58534;BME280;44109;52.398;7.024;2022-09-28T06:25:39;99293.41;;;10.64;95.85
58534;BME280;44109;52.398;7.024;2022-09-28T06:28:10;99296.09;;;10.71;95.39
58534;BME280;44109;52.398;7.024;2022-09-28T06:30:39;99291.31;;;10.75;95.52
58534;BME280;44109;52.398;7.024;2022-09-28T06:33:10;99304.38;;;10.78;95.29
58534;BME280;44109;52.398;7.024;2022-09-28T06:35:39;99300.75;;;10.85;95.05
58534;BME280;44109;52.398;7.024;2022-09-28T06:38:07;99306.28;;;10.88;94.69
58534;BME280;44109;52.398;7.024;2022-09-28T06:40:35;99302.53;;;10.61;94.10
58534;BME280;44109;52.398;7.024;2022-09-28T06:43:06;99317.63;;;10.53;93.20
58534;BME280;44109;52.398;7.024;2022-09-28T06:45:37;99320.03;;;10.51;92.99
58534;BME280;44109;52.398;7.024;2022-09-28T06:48:05;99321.50;;;10.70;93.33
58534;BME280;44109;52.398;7.024;2022-09-28T06:50:36;99315.81;;;10.87;93.92
58534;BME280;44109;52.398;7.024;2022-09-28T06:53:07;99328.50;;;10.85;93.14
58534;BME280;44109;52.398;7.024;2022-09-28T06:55:38;99329.56;;;11.02;93.67
58534;BME280;44109;52.398;7.024;2022-09-28T06:58:09;99332.03;;;10.92;93.41
58534;BME280;44109;52.398;7.024;2022-09-28T07:00:40;99329.25;;;10.30;92.68
58534;BME280;44109;52.398;7.024;2022-09-28T07:03:10;99319.44;;;10.07;92.90
58534;BME280;44109;52.398;7.024;2022-09-28T07:05:41;99337.66;;;10.05;94.45
58534;BME280;44109;52.398;7.024;2022-09-28T07:08:10;99335.47;;;10.52;94.02
58534;BME280;44109;52.398;7.024;2022-09-28T07:10:40;99343.13;;;10.23;92.76
58534;BME280;44109;52.398;7.024;2022-09-28T07:13:10;99331.91;;;10.48;93.17
58534;BME280;44109;52.398;7.024;2022-09-28T07:15:40;99339.38;;;10.61;92.65
58534;BME280;44109;52.398;7.024;2022-09-28T07:18:09;99347.34;;;10.49;92.78
58534;BME280;44109;52.398;7.024;2022-09-28T07:20:37;99347.00;;;10.43;93.06
58534;BME280;44109;52.398;7.024;2022-09-28T07:23:06;99345.06;;;10.33;92.83
58534;BME280;44109;52.398;7.024;2022-09-28T07:25:33;99346.44;;;9.78;93.99
58534;BME280;44109;52.398;7.024;2022-09-28T07:28:03;99355.44;;;10.11;94.60
58534;BME280;44109;52.398;7.024;2022-09-28T07:30:32;99360.63;;;10.02;93.13
58534;BME280;44109;52.398;7.024;2022-09-28T07:33:03;99358.63;;;10.09;92.79
58534;BME280;44109;52.398;7.024;2022-09-28T07:35:32;99362.97;;;10.03;93.41
58534;BME280;44109;52.398;7.024;2022-09-28T07:38:02;99363.84;;;9.75;94.06
58534;BME280;44109;52.398;7.024;2022-09-28T07:40:31;99364.66;;;9.76;95.07
58534;BME280;44109;52.398;7.024;2022-09-28T07:43:19;99367.47;;;9.47;94.54
58534;BME280;44109;52.398;7.024;2022-09-28T07:45:48;99383.97;;;9.94;95.61
58534;BME280;44109;52.398;7.024;2022-09-28T07:48:19;99371.94;;;10.47;94.29
58534;BME280;44109;52.398;7.024;2022-09-28T07:50:47;99382.19;;;11.16;94.41
58534;BME280;44109;52.398;7.024;2022-09-28T07:53:16;99382.25;;;10.46;90.88
58534;BME280;44109;52.398;7.024;2022-09-28T07:55:49;99376.75;;;10.21;92.33
58534;BME280;44109;52.398;7.024;2022-09-28T07:58:17;99389.50;;;10.01;91.75
58534;BME280;44109;52.398;7.024;2022-09-28T08:00:45;99391.50;;;9.93;91.48
58534;BME280;44109;52.398;7.024;2022-09-28T08:03:14;99390.59;;;10.35;90.47
58534;BME280;44109;52.398;7.024;2022-09-28T08:05:43;99357.97;;;10.64;89.13
58534;BME280;44109;52.398;7.024;2022-09-28T08:08:12;99357.44;;;10.07;88.99
58534;BME280;44109;52.398;7.024;2022-09-28T08:10:41;99400.84;;;10.46;88.81
58534;BME280;44109;52.398;7.024;2022-09-28T08:13:09;99393.25;;;11.20;90.55
58534;BME280;44109;52.398;7.024;2022-09-28T08:15:37;99400.72;;;11.71;90.98
58534;BME280;44109;52.398;7.024;2022-09-28T08:18:04;99399.53;;;12.13;91.65
58534;BME280;44109;52.398;7.024;2022-09-28T08:20:33;99399.94;;;12.46;92.60
58534;BME280;44109;52.398;7.024;2022-09-28T08:23:19;99403.78;;;12.22;87.34
58534;BME280;44109;52.398;7.024;2022-09-28T08:25:49;99404.66;;;12.15;86.94
58534;BME280;44109;52.398;7.024;2022-09-28T08:28:19;99401.44;;;12.20;85.68
58534;BME280;44109;52.398;7.024;2022-09-28T08:30:48;99414.94;;;12.52;86.53
58534;BME280;44109;52.398;7.024;2022-09-28T08:33:17;99410.94;;;12.84;86.37
58534;BME280;44109;52.398;7.024;2022-09-28T08:35:47;99395.31;;;13.17;89.67
58534;BME280;44109;52.398;7.024;2022-09-28T08:38:22;99420.53;;;12.49;80.26
58534;BME280;44109;52.398;7.024;2022-09-28T08:41:00;99408.97;;;12.54;86.34
58534;BME280;44109;52.398;7.024;2022-09-28T08:43:44;99417.16;;;12.95;84.99
58534;BME280;44109;52.398;7.024;2022-09-28T08:46:21;99420.75;;;12.65;83.41
58534;BME280;44109;52.398;7.024;2022-09-28T08:48:55;99390.63;;;12.26;81.71
58534;BME280;44109;52.398;7.024;2022-09-28T08:51:32;99419.34;;;12.80;84.45
58534;BME280;44109;52.398;7.024;2022-09-28T08:54:08;99424.84;;;11.81;84.87
58534;BME280;44109;52.398;7.024;2022-09-28T08:56:47;99429.56;;;11.43;89.04
58534;BME280;44109;52.398;7.024;2022-09-28T08:59:20;99425.41;;;11.65;86.89
58534;BME280;44109;52.398;7.024;2022-09-28T09:01:55;99434.22;;;11.53;84.38
58534;BME280;44109;52.398;7.024;2022-09-28T09:04:26;99417.47;;;11.64;84.21
58534;BME280;44109;52.398;7.024;2022-09-28T09:07:09;99439.00;;;11.98;84.88
58534;BME280;44109;52.398;7.024;2022-09-28T09:09:57;99438.75;;;12.23;85.54
58534;BME280;44109;52.398;7.024;2022-09-28T09:12:42;99452.47;;;12.37;82.20
58534;BME280;44109;52.398;7.024;2022-09-28T09:15:36;99446.69;;;12.58;84.21
58534;BME280;44109;52.398;7.024;2022-09-28T09:18:26;99448.91;;;11.99;81.35
58534;BME280;44109;52.398;7.024;2022-09-28T09:21:08;99448.47;;;11.59;82.54
58534;BME280;44109;52.398;7.024;2022-09-28T09:23:53;99405.97;;;11.62;83.97
58534;BME280;44109;52.398;7.024;2022-09-28T09:26:34;99457.38;;;11.88;85.76
58534;BME280;44109;52.398;7.024;2022-09-28T09:29:14;99446.50;;;12.38;86.06
58534;BME280;44109;52.398;7.024;2022-09-28T09:32:04;99451.28;;;12.72;85.61
58534;BME280;44109;52.398;7.024;2022-09-28T09:34:54;99449.72;;;11.99;81.55
58534;BME280;44109;52.398;7.024;2022-09-28T09:37:47;99456.00;;;12.03;83.91
58534;BME280;44109;52.398;7.024;2022-09-28T09:40:41;99461.34;;;11.87;84.96
58534;BME280;44109;52.398;7.024;2022-09-28T09:43:41;99450.13;;;12.35;85.75
58534;BME280;44109;52.398;7.024;2022-09-28T09:46:33;99463.88;;;12.50;84.58
58534;BME280;44109;52.398;7.024;2022-09-28T09:49:12;99463.22;;;12.69;83.82
58534;BME280;44109;52.398;7.024;2022-09-28T09:51:48;99469.06;;;13.09;82.06
58534;BME280;44109;52.398;7.024;2022-09-28T09:54:24;99467.25;;;12.64;82.00
58534;BME280;44109;52.398;7.024;2022-09-28T09:56:58;99454.59;;;12.90;81.53
58534;BME280;44109;52.398;7.024;2022-09-28T09:59:35;99469.47;;;13.61;83.37
58534;BME280;44109;52.398;7.024;2022-09-28T10:02:13;99473.06;;;13.85;81.18
58534;BME280;44109;52.398;7.024;2022-09-28T10:04:48;99477.94;;;14.01;78.35
58534;BME280;44109;52.398;7.024;2022-09-28T10:07:22;99475.06;;;14.28;81.91
58534;BME280;44109;52.398;7.024;2022-09-28T10:09:57;99474.47;;;14.60;82.82
58534;BME280;44109;52.398;7.024;2022-09-28T10:12:28;99466.88;;;14.61;77.24
58534;BME280;44109;52.398;7.024;2022-09-28T10:15:01;99478.66;;;15.08;82.67
58534;BME280;44109;52.398;7.024;2022-09-28T10:17:30;99472.16;;;14.75;73.37
58534;BME280;44109;52.398;7.024;2022-09-28T10:19:59;99473.22;;;14.41;72.77
58534;BME280;44109;52.398;7.024;2022-09-28T10:22:27;99478.97;;;15.10;82.45
58534;BME280;44109;52.398;7.024;2022-09-28T10:24:57;99480.41;;;15.18;75.07
58534;BME280;44109;52.398;7.024;2022-09-28T10:27:29;99476.06;;;13.71;75.29
58534;BME280;44109;52.398;7.024;2022-09-28T10:30:13;99466.84;;;13.51;77.13
58534;BME280;44109;52.398;7.024;2022-09-28T10:32:45;99474.41;;;12.96;76.65
58534;BME280;44109;52.398;7.024;2022-09-28T10:35:23;99483.06;;;12.71;78.83
58534;BME280;44109;52.398;7.024;2022-09-28T10:37:55;99479.97;;;13.77;79.73
58534;BME280;44109;52.398;7.024;2022-09-28T10:40:36;99477.16;;;13.54;75.68
58534;BME280;44109;52.398;7.024;2022-09-28T10:43:17;99483.34;;;13.11;75.60
58534;BME280;44109;52.398;7.024;2022-09-28T10:45:58;99472.78;;;12.68;78.53
58534;BME280;44109;52.398;7.024;2022-09-28T10:48:37;99479.25;;;13.46;77.28
58534;BME280;44109;52.398;7.024;2022-09-28T10:51:17;99463.88;;;13.38;76.37
58534;BME280;44109;52.398;7.024;2022-09-28T10:53:57;99478.97;;;13.40;77.00
58534;BME280;44109;52.398;7.024;2022-09-28T10:56:28;99486.84;;;14.16;76.42
58534;BME280;44109;52.398;7.024;2022-09-28T10:59:01;99485.78;;;14.73;77.94
58534;BME280;44109;52.398;7.024;2022-09-28T11:01:53;99484.31;;;15.21;77.04
58534;BME280;44109;52.398;7.024;2022-09-28T11:04:27;99485.41;;;15.43;74.97
58534;BME280;44109;52.398;7.024;2022-09-28T11:06:56;99487.16;;;15.37;70.18
58534;BME280;44109;52.398;7.024;2022-09-28T11:09:27;99490.47;;;14.36;69.28
58534;BME280;44109;52.398;7.024;2022-09-28T11:11:57;99473.09;;;14.05;73.15
58534;BME280;44109;52.398;7.024;2022-09-28T11:14:32;99474.41;;;14.64;70.84
58534;BME280;44109;52.398;7.024;2022-09-28T11:17:16;99486.28;;;15.40;70.84
58534;BME280;44109;52.398;7.024;2022-09-28T11:19:52;99485.91;;;15.38;72.49
58534;BME280;44109;52.398;7.024;2022-09-28T11:22:22;99488.94;;;15.64;69.80
58534;BME280;44109;52.398;7.024;2022-09-28T11:27:39;99479.28;;;15.32;66.31
58534;BME280;44109;52.398;7.024;2022-09-28T11:30:20;99480.69;;;14.68;66.42
58534;BME280;44109;52.398;7.024;2022-09-28T11:32:53;99482.53;;;14.11;71.88
58534;BME280;44109;52.398;7.024;2022-09-28T11:35:31;99470.16;;;14.76;72.59
58534;BME280;44109;52.398;7.024;2022-09-28T11:38:33;99485.03;;;14.89;74.93
58534;BME280;44109;52.398;7.024;2022-09-28T11:41:25;99484.56;;;15.63;72.12
58534;BME280;44109;52.398;7.024;2022-09-28T11:44:20;99487.28;;;15.83;70.10
58534;BME280;44109;52.398;7.024;2022-09-28T11:47:12;99487.00;;;15.44;68.46
58534;BME280;44109;52.398;7.024;2022-09-28T11:49:57;99490.28;;;15.39;69.02
58534;BME280;44109;52.398;7.024;2022-09-28T11:52:34;99471.69;;;15.98;69.83
58534;BME280;44109;52.398;7.024;2022-09-28T11:55:12;99481.88;;;16.21;70.09
58534;BME280;44109;52.398;7.024;2022-09-28T11:57:49;99483.34;;;15.96;67.39
58534;BME280;44109;52.398;7.024;2022-09-28T12:00:26;99485.97;;;16.04;67.64
58534;BME280;44109;52.398;7.024;2022-09-28T12:03:00;99479.75;;;15.80;68.60
58534;BME280;44109;52.398;7.024;2022-09-28T12:05:37;99487.34;;;15.63;68.65
58534;BME280;44109;52.398;7.024;2022-09-28T12:08:15;99477.41;;;15.94;72.21
58534;BME280;44109;52.398;7.024;2022-09-28T12:10:53;99485.75;;;15.29;63.32
58534;BME280;44109;52.398;7.024;2022-09-28T12:13:26;99483.78;;;15.95;71.60
58534;BME280;44109;52.398;7.024;2022-09-28T12:15:58;99465.28;;;15.68;66.84
58534;BME280;44109;52.398;7.024;2022-09-28T12:18:37;99464.53;;;15.48;64.04
58534;BME280;44109;52.398;7.024;2022-09-28T12:21:26;99480.81;;;14.61;65.59
58534;BME280;44109;52.398;7.024;2022-09-28T12:24:08;99478.47;;;14.16;65.62
58534;BME280;44109;52.398;7.024;2022-09-28T12:26:45;99472.88;;;14.79;68.03
58534;BME280;44109;52.398;7.024;2022-09-28T12:29:21;99477.59;;;14.62;64.35
58534;BME280;44109;52.398;7.024;2022-09-28T12:31:58;99461.16;;;15.40;71.11
58534;BME280;44109;52.398;7.024;2022-09-28T12:34:34;99473.78;;;15.61;68.21
58534;BME280;44109;52.398;7.024;2022-09-28T12:37:23;99477.38;;;15.45;66.26
58534;BME280;44109;52.398;7.024;2022-09-28T12:40:18;99477.41;;;15.78;67.30
58534;BME280;44109;52.398;7.024;2022-09-28T12:43:10;99472.94;;;15.97;70.34
58534;BME280;44109;52.398;7.024;2022-09-28T12:46:25;99477.09;;;16.21;70.74
58534;BME280;44109;52.398;7.024;2022-09-28T12:49:18;99471.06;;;16.23;70.41
58534;BME280;44109;52.398;7.024;2022-09-28T12:51:57;99453.06;;;16.08;72.72
58534;BME280;44109;52.398;7.024;2022-09-28T12:54:52;99484.38;;;15.54;67.63
58534;BME280;44109;52.398;7.024;2022-09-28T12:57:38;99485.00;;;15.45;65.98
58534;BME280;44109;52.398;7.024;2022-09-28T13:00:16;99477.38;;;16.11;72.15
58534;BME280;44109;52.398;7.024;2022-09-28T13:03:18;99469.88;;;15.91;63.38
58534;BME280;44109;52.398;7.024;2022-09-28T13:06:21;99467.38;;;16.26;70.38
58534;BME280;44109;52.398;7.024;2022-09-28T13:09:18;99479.31;;;16.43;66.80
58534;BME280;44109;52.398;7.024;2022-09-28T13:11:56;99469.81;;;15.95;61.72
58534;BME280;44109;52.398;7.024;2022-09-28T13:15:20;99462.66;;;16.23;62.61
58534;BME280;44109;52.398;7.024;2022-09-28T13:18:07;99477.81;;;16.09;65.17
58534;BME280;44109;52.398;7.024;2022-09-28T13:20:57;99483.31;;;16.71;70.47
58534;BME280;44109;52.398;7.024;2022-09-28T13:23:34;99471.41;;;16.96;71.88
58534;BME280;44109;52.398;7.024;2022-09-28T13:26:12;99473.88;;;17.07;72.56
58534;BME280;44109;52.398;7.024;2022-09-28T13:28:46;99474.53;;;16.85;66.96
58534;BME280;44109;52.398;7.024;2022-09-28T13:31:19;99468.88;;;16.43;61.12
58534;BME280;44109;52.398;7.024;2022-09-28T13:33:56;99468.16;;;16.27;60.23
58534;BME280;44109;52.398;7.024;2022-09-28T13:36:36;99476.34;;;16.63;65.11
58534;BME280;44109;52.398;7.024;2022-09-28T13:39:36;99471.63;;;16.02;57.73
58534;BME280;44109;52.398;7.024;2022-09-28T13:42:06;99475.78;;;16.26;60.12
58534;BME280;44109;52.398;7.024;2022-09-28T13:44:57;99471.91;;;16.36;63.14